sensor_id;sensor_type;location;lat;lon;timestamp;temperature;humidity
40255;DHT22;25973;52.368;4.940;2023-04-25T00:00:13;8.70;99.90
40255;DHT22;25973;52.368;4.940;2023-04-25T00:02:38;8.70;99.90
40255;DHT22;25973;52.368;4.940;2023-04-25T00:05:04;8.60;99.90
40255;DHT22;25973;52.368;4.940;2023-04-25T00:07:30;8.60;99.90
40255;DHT22;25973;52.368;4.940;2023-04-25T00:09:56;8.60;99.90
40255;DHT22;25973;52.368;4.940;2023-04-25T00:12:21;8.60;99.90
40255;DHT22;25973;52.368;4.940;2023-04-25T00:14:48;8.60;99.90
40255;DHT22;25973;52.368;4.940;2023-04-25T00:17:15;8.60;99.90
40255;DHT22;25973;52.368;4.940;2023-04-25T00:19:41;8.60;99.90
40255;DHT22;25973;52.368;4.940;2023-04-25T00:22:07;8.60;99.90
40255;DHT22;25973;52.368;4.940;2023-04-25T00:24:32;8.60;99.90
40255;DHT22;25973;52.368;4.940;2023-04-25T00:26:58;8.60;99.90
40255;DHT22;25973;52.368;4.940;2023-04-25T00:29:23;8.60;99.90
40255;DHT22;25973;52.368;4.940;2023-04-25T00:31:49;8.60;99.90
40255;DHT22;25973;52.368;4.940;2023-04-25T00:34:14;8.60;99.90
40255;DHT22;25973;52.368;4.940;2023-04-25T00:36:39;8.60;99.90
40255;DHT22;25973;52.368;4.940;2023-04-25T00:39:05;8.50;99.90
40255;DHT22;25973;52.368;4.940;2023-04-25T00:41:31;8.60;99.90
40255;DHT22;25973;52.368;4.940;2023-04-25T00:43:57;8.60;99.90
40255;DHT22;25973;52.368;4.940;2023-04-25T00:46:24;8.50;99.90
40255;DHT22;25973;52.368;4.940;2023-04-25T00:48:50;8.50;99.90
40255;DHT22;25973;52.368;4.940;2023-04-25T00:51:19;8.50;99.90
40255;DHT22;25973;52.368;4.940;2023-04-25T00:53:45;8.60;99.90
40255;DHT22;25973;52.368;4.940;2023-04-25T00:56:11;8.60;99.90
40255;DHT22;25973;52.368;4.940;2023-04-25T00:58:37;8.60;99.90
40255;DHT22;25973;52.368;4.940;2023-04-25T01:01:02;8.60;99.90
40255;DHT22;25973;52.368;4.940;2023-04-25T01:03:28;8.60;99.90
40255;DHT22;25973;52.368;4.940;2023-04-25T01:05:55;8.50;99.90
40255;DHT22;25973;52.368;4.940;2023-04-25T01:08:23;8.50;99.90
40255;DHT22;25973;52.368;4.940;2023-04-25T01:10:49;8.50;99.90
40255;DHT22;25973;52.368;4.940;2023-04-25T01:13:14;8.40;99.90
40255;DHT22;25973;52.368;4.940;2023-04-25T01:15:40;8.50;99.90
40255;DHT22;25973;52.368;4.940;2023-04-25T01:18:05;8.40;99.90
40255;DHT22;25973;52.368;4.940;2023-04-25T01:20:31;8.40;99.90
40255;DHT22;25973;52.368;4.940;2023-04-25T01:22:57;8.40;99.90
40255;DHT22;25973;52.368;4.940;2023-04-25T01:25:23;8.40;99.90
40255;DHT22;25973;52.368;4.940;2023-04-25T01:27:49;8.40;99.90
40255;DHT22;25973;52.368;4.940;2023-04-25T01:30:14;8.40;99.90
40255;DHT22;25973;52.368;4.940;2023-04-25T01:32:40;8.40;99.90
40255;DHT22;25973;52.368;4.940;2023-04-25T01:35:10;8.40;99.90
40255;DHT22;25973;52.368;4.940;2023-04-25T01:40:02;8.30;99.90
40255;DHT22;25973;52.368;4.940;2023-04-25T01:42:27;8.30;99.90
40255;DHT22;25973;52.368;4.940;2023-04-25T01:44:53;8.30;99.90
40255;DHT22;25973;52.368;4.940;2023-04-25T01:47:18;8.30;99.90
40255;DHT22;25973;52.368;4.940;2023-04-25T01:49:44;8.30;99.90
40255;DHT22;25973;52.368;4.940;2023-04-25T01:52:09;8.30;99.90
40255;DHT22;25973;52.368;4.940;2023-04-25T01:54:35;8.30;99.90
40255;DHT22;25973;52.368;4.940;2023-04-25T01:57:00;8.30;99.90
40255;DHT22;25973;52.368;4.940;2023-04-25T01:59:26;8.30;99.90
40255;DHT22;25973;52.368;4.940;2023-04-25T02:01:52;8.30;99.90
40255;DHT22;25973;52.368;4.940;2023-04-25T02:04:17;8.30;99.90
40255;DHT22;25973;52.368;4.940;2023-04-25T02:06:43;8.40;99.90
40255;DHT22;25973;52.368;4.940;2023-04-25T02:09:08;8.40;99.90
40255;DHT22;25973;52.368;4.940;2023-04-25T02:11:34;8.40;99.90
40255;DHT22;25973;52.368;4.940;2023-04-25T02:13:59;8.30;99.90
40255;DHT22;25973;52.368;4.940;2023-04-25T02:16:24;8.30;99.90
40255;DHT22;25973;52.368;4.940;2023-04-25T02:18:50;8.30;99.90
40255;DHT22;25973;52.368;4.940;2023-04-25T02:21:18;8.30;99.90
40255;DHT22;25973;52.368;4.940;2023-04-25T02:23:43;8.30;99.90
40255;DHT22;25973;52.368;4.940;2023-04-25T02:26:10;8.30;99.90
40255;DHT22;25973;52.368;4.940;2023-04-25T02:28:38;8.30;99.90
40255;DHT22;25973;52.368;4.940;2023-04-25T02:31:03;8.30;99.90
40255;DHT22;25973;52.368;4.940;2023-04-25T02:33:29;8.30;99.90
40255;DHT22;25973;52.368;4.940;2023-04-25T02:35:54;8.30;99.90
40255;DHT22;25973;52.368;4.940;2023-04-25T02:38:20;8.30;99.90
40255;DHT22;25973;52.368;4.940;2023-04-25T02:40:45;8.20;99.90
40255;DHT22;25973;52.368;4.940;2023-04-25T02:43:11;8.20;99.90
40255;DHT22;25973;52.368;4.940;2023-04-25T02:45:36;8.10;99.90
40255;DHT22;25973;52.368;4.940;2023-04-25T02:48:03;8.00;99.90
40255;DHT22;25973;52.368;4.940;2023-04-25T02:50:28;8.00;99.90
40255;DHT22;25973;52.368;4.940;2023-04-25T02:52:53;7.90;99.90
40255;DHT22;25973;52.368;4.940;2023-04-25T02:55:19;7.90;99.90
40255;DHT22;25973;52.368;4.940;2023-04-25T02:57:45;7.90;99.90
40255;DHT22;25973;52.368;4.940;2023-04-25T03:00:11;7.90;99.90
40255;DHT22;25973;52.368;4.940;2023-04-25T03:02:37;7.90;99.90
40255;DHT22;25973;52.368;4.940;2023-04-25T03:05:02;7.90;99.90
40255;DHT22;25973;52.368;4.940;2023-04-25T03:07:28;7.90;99.90
40255;DHT22;25973;52.368;4.940;2023-04-25T03:09:53;7.90;99.90
40255;DHT22;25973;52.368;4.940;2023-04-25T03:12:20;7.90;99.90
40255;DHT22;25973;52.368;4.940;2023-04-25T03:14:46;8.00;99.90
40255;DHT22;25973;52.368;4.940;2023-04-25T03:17:11;8.00;99.90
40255;DHT22;25973;52.368;4.940;2023-04-25T03:19:37;8.00;99.90
40255;DHT22;25973;52.368;4.940;2023-04-25T03:22:02;8.00;99.90
40255;DHT22;25973;52.368;4.940;2023-04-25T03:24:28;8.10;99.90
40255;DHT22;25973;52.368;4.940;2023-04-25T03:26:53;8.10;99.90
40255;DHT22;25973;52.368;4.940;2023-04-25T03:29:18;8.00;99.90
40255;DHT22;25973;52.368;4.940;2023-04-25T03:31:44;8.00;99.90
40255;DHT22;25973;52.368;4.940;2023-04-25T03:34:10;7.90;99.90
40255;DHT22;25973;52.368;4.940;2023-04-25T03:36:36;7.80;99.90
40255;DHT22;25973;52.368;4.940;2023-04-25T03:39:01;7.80;99.90
40255;DHT22;25973;52.368;4.940;2023-04-25T03:41:27;7.70;99.90
40255;DHT22;25973;52.368;4.940;2023-04-25T03:43:53;7.70;99.90
40255;DHT22;25973;52.368;4.940;2023-04-25T03:46:18;7.70;99.90
40255;DHT22;25973;52.368;4.940;2023-04-25T03:48:43;7.70;99.90
40255;DHT22;25973;52.368;4.940;2023-04-25T03:51:09;7.60;99.90
40255;DHT22;25973;52.368;4.940;2023-04-25T03:53:34;7.60;99.90
40255;DHT22;25973;52.368;4.940;2023-04-25T03:56:00;7.60;99.90
40255;DHT22;25973;52.368;4.940;2023-04-25T03:58:25;7.60;99.90
40255;DHT22;25973;52.368;4.940;2023-04-25T04:00:51;7.60;99.90
40255;DHT22;25973;52.368;4.940;2023-04-25T04:03:16;7.60;99.90
40255;DHT22;25973;52.368;4.940;2023-04-25T04:05:41;7.60;99.90
40255;DHT22;25973;52.368;4.940;2023-04-25T04:08:07;7.70;99.90
40255;DHT22;25973;52.368;4.940;2023-04-25T04:10:32;7.70;99.90
40255;DHT22;25973;52.368;4.940;2023-04-25T04:12:58;7.70;99.90
40255;DHT22;25973;52.368;4.940;2023-04-25T04:15:23;7.70;99.90
40255;DHT22;25973;52.368;4.940;2023-04-25T04:17:49;7.70;99.90
40255;DHT22;25973;52.368;4.940;2023-04-25T04:20:14;7.80;99.90
40255;DHT22;25973;52.368;4.940;2023-04-25T04:22:40;7.80;99.90
40255;DHT22;25973;52.368;4.940;2023-04-25T04:25:05;7.80;99.90
40255;DHT22;25973;52.368;4.940;2023-04-25T04:27:31;7.70;99.90
40255;DHT22;25973;52.368;4.940;2023-04-25T04:29:57;7.70;99.90
40255;DHT22;25973;52.368;4.940;2023-04-25T04:32:22;7.70;99.90
40255;DHT22;25973;52.368;4.940;2023-04-25T04:34:48;7.70;99.90
40255;DHT22;25973;52.368;4.940;2023-04-25T04:37:14;7.70;99.90
40255;DHT22;25973;52.368;4.940;2023-04-25T04:39:40;7.70;99.90
40255;DHT22;25973;52.368;4.940;2023-04-25T04:42:05;7.70;99.90
40255;DHT22;25973;52.368;4.940;2023-04-25T04:44:31;7.80;99.90
40255;DHT22;25973;52.368;4.940;2023-04-25T04:47:00;7.80;99.90
40255;DHT22;25973;52.368;4.940;2023-04-25T04:49:26;7.90;99.90
40255;DHT22;25973;52.368;4.940;2023-04-25T04:51:51;7.90;99.90
40255;DHT22;25973;52.368;4.940;2023-04-25T04:54:17;8.00;99.90
40255;DHT22;25973;52.368;4.940;2023-04-25T04:56:42;8.00;99.90
40255;DHT22;25973;52.368;4.940;2023-04-25T04:59:08;8.00;99.90
40255;DHT22;25973;52.368;4.940;2023-04-25T05:01:34;8.10;99.90
40255;DHT22;25973;52.368;4.940;2023-04-25T05:04:02;8.10;99.90
40255;DHT22;25973;52.368;4.940;2023-04-25T05:06:29;8.20;99.90
40255;DHT22;25973;52.368;4.940;2023-04-25T05:08:55;8.20;99.90
40255;DHT22;25973;52.368;4.940;2023-04-25T05:11:21;8.20;99.90
40255;DHT22;25973;52.368;4.940;2023-04-25T05:13:46;8.30;99.90
40255;DHT22;25973;52.368;4.940;2023-04-25T05:16:12;8.40;99.90
40255;DHT22;25973;52.368;4.940;2023-04-25T05:18:39;8.40;99.90
40255;DHT22;25973;52.368;4.940;2023-04-25T05:21:04;8.50;99.90
40255;DHT22;25973;52.368;4.940;2023-04-25T05:23:30;8.60;99.90
40255;DHT22;25973;52.368;4.940;2023-04-25T05:25:56;8.60;99.90
40255;DHT22;25973;52.368;4.940;2023-04-25T05:28:21;8.70;99.90
40255;DHT22;25973;52.368;4.940;2023-04-25T05:30:47;8.70;99.90
40255;DHT22;25973;52.368;4.940;2023-04-25T05:33:12;8.80;99.90
40255;DHT22;25973;52.368;4.940;2023-04-25T05:35:38;8.80;99.90
40255;DHT22;25973;52.368;4.940;2023-04-25T05:38:03;8.80;99.90
40255;DHT22;25973;52.368;4.940;2023-04-25T05:40:29;8.80;99.90
40255;DHT22;25973;52.368;4.940;2023-04-25T05:42:54;8.80;99.90
40255;DHT22;25973;52.368;4.940;2023-04-25T05:45:20;8.80;99.90
40255;DHT22;25973;52.368;4.940;2023-04-25T05:47:45;8.80;99.90
40255;DHT22;25973;52.368;4.940;2023-04-25T05:50:11;8.80;99.90
40255;DHT22;25973;52.368;4.940;2023-04-25T05:52:36;8.90;99.90
40255;DHT22;25973;52.368;4.940;2023-04-25T05:55:02;9.00;99.90
40255;DHT22;25973;52.368;4.940;2023-04-25T05:57:27;9.10;99.90
40255;DHT22;25973;52.368;4.940;2023-04-25T05:59:53;9.20;99.90
40255;DHT22;25973;52.368;4.940;2023-04-25T06:02:19;9.40;99.90
40255;DHT22;25973;52.368;4.940;2023-04-25T06:04:46;9.50;99.90
40255;DHT22;25973;52.368;4.940;2023-04-25T06:07:11;9.60;99.90
40255;DHT22;25973;52.368;4.940;2023-04-25T06:09:37;9.60;99.90
40255;DHT22;25973;52.368;4.940;2023-04-25T06:12:04;9.70;99.90
40255;DHT22;25973;52.368;4.940;2023-04-25T06:14:30;9.80;99.90
40255;DHT22;25973;52.368;4.940;2023-04-25T06:16:55;9.80;99.90
40255;DHT22;25973;52.368;4.940;2023-04-25T06:19:21;9.90;99.90
40255;DHT22;25973;52.368;4.940;2023-04-25T06:21:46;9.90;99.90
40255;DHT22;25973;52.368;4.940;2023-04-25T06:24:12;10.10;99.90
40255;DHT22;25973;52.368;4.940;2023-04-25T06:26:37;10.20;99.90
40255;DHT22;25973;52.368;4.940;2023-04-25T06:29:03;10.30;99.90
40255;DHT22;25973;52.368;4.940;2023-04-25T06:31:28;10.30;99.90
40255;DHT22;25973;52.368;4.940;2023-04-25T06:33:54;10.30;99.90
40255;DHT22;25973;52.368;4.940;2023-04-25T06:36:20;10.40;99.90
40255;DHT22;25973;52.368;4.940;2023-04-25T06:38:53;10.40;99.90
40255;DHT22;25973;52.368;4.940;2023-04-25T06:41:18;10.30;99.90
40255;DHT22;25973;52.368;4.940;2023-04-25T06:43:44;10.30;99.90
40255;DHT22;25973;52.368;4.940;2023-04-25T06:46:09;10.20;99.90
40255;DHT22;25973;52.368;4.940;2023-04-25T06:48:35;10.20;99.90
40255;DHT22;25973;52.368;4.940;2023-04-25T06:51:01;10.30;99.90
40255;DHT22;25973;52.368;4.940;2023-04-25T06:53:26;10.30;99.90
40255;DHT22;25973;52.368;4.940;2023-04-25T06:55:52;10.40;99.90
40255;DHT22;25973;52.368;4.940;2023-04-25T06:58:17;10.60;99.90
40255;DHT22;25973;52.368;4.940;2023-04-25T07:00:43;10.80;99.90
40255;DHT22;25973;52.368;4.940;2023-04-25T07:03:08;11.00;99.90
40255;DHT22;25973;52.368;4.940;2023-04-25T07:05:34;11.20;99.90
40255;DHT22;25973;52.368;4.940;2023-04-25T07:08:00;11.30;99.90
40255;DHT22;25973;52.368;4.940;2023-04-25T07:10:25;11.70;99.90
40255;DHT22;25973;52.368;4.940;2023-04-25T07:12:51;12.20;99.90
40255;DHT22;25973;52.368;4.940;2023-04-25T07:15:16;13.00;99.90
40255;DHT22;25973;52.368;4.940;2023-04-25T07:17:42;13.80;99.90
40255;DHT22;25973;52.368;4.940;2023-04-25T07:20:08;14.30;99.90
40255;DHT22;25973;52.368;4.940;2023-04-25T07:22:34;14.70;99.90
40255;DHT22;25973;52.368;4.940;2023-04-25T07:25:00;15.20;99.90
40255;DHT22;25973;52.368;4.940;2023-04-25T07:27:25;15.70;98.80
40255;DHT22;25973;52.368;4.940;2023-04-25T07:29:51;15.80;98.00
40255;DHT22;25973;52.368;4.940;2023-04-25T07:32:16;15.60;98.20
40255;DHT22;25973;52.368;4.940;2023-04-25T07:34:42;15.20;98.40
40255;DHT22;25973;52.368;4.940;2023-04-25T07:37:07;14.80;99.40
40255;DHT22;25973;52.368;4.940;2023-04-25T07:39:32;14.30;99.90
40255;DHT22;25973;52.368;4.940;2023-04-25T07:41:58;14.00;99.90
40255;DHT22;25973;52.368;4.940;2023-04-25T07:44:24;14.10;99.90
40255;DHT22;25973;52.368;4.940;2023-04-25T07:46:49;14.30;99.90
40255;DHT22;25973;52.368;4.940;2023-04-25T07:49:15;14.70;99.90
40255;DHT22;25973;52.368;4.940;2023-04-25T07:51:41;14.80;99.90
40255;DHT22;25973;52.368;4.940;2023-04-25T07:54:09;14.60;99.80
40255;DHT22;25973;52.368;4.940;2023-04-25T07:56:34;14.40;99.90
40255;DHT22;25973;52.368;4.940;2023-04-25T07:59:00;14.00;99.90
40255;DHT22;25973;52.368;4.940;2023-04-25T08:01:25;13.80;99.90
40255;DHT22;25973;52.368;4.940;2023-04-25T08:03:52;13.60;99.90
40255;DHT22;25973;52.368;4.940;2023-04-25T08:06:17;13.70;99.90
40255;DHT22;25973;52.368;4.940;2023-04-25T08:08:43;14.10;99.90
40255;DHT22;25973;52.368;4.940;2023-04-25T08:11:08;14.50;99.90
40255;DHT22;25973;52.368;4.940;2023-04-25T08:13:34;14.90;99.90
40255;DHT22;25973;52.368;4.940;2023-04-25T08:15:59;15.30;98.90
40255;DHT22;25973;52.368;4.940;2023-04-25T08:18:25;15.60;99.60
40255;DHT22;25973;52.368;4.940;2023-04-25T08:20:50;16.00;98.20
40255;DHT22;25973;52.368;4.940;2023-04-25T08:23:16;16.40;98.50
40255;DHT22;25973;52.368;4.940;2023-04-25T08:25:41;16.80;97.70
40255;DHT22;25973;52.368;4.940;2023-04-25T08:28:07;17.20;97.40
40255;DHT22;25973;52.368;4.940;2023-04-25T08:30:32;17.50;96.70
40255;DHT22;25973;52.368;4.940;2023-04-25T08:32:58;17.70;93.90
40255;DHT22;25973;52.368;4.940;2023-04-25T08:35:23;17.60;92.40
40255;DHT22;25973;52.368;4.940;2023-04-25T08:37:48;17.10;93.00
40255;DHT22;25973;52.368;4.940;2023-04-25T08:40:14;16.70;92.60
40255;DHT22;25973;52.368;4.940;2023-04-25T08:42:40;16.40;93.50
40255;DHT22;25973;52.368;4.940;2023-04-25T08:45:07;16.00;94.40
40255;DHT22;25973;52.368;4.940;2023-04-25T08:47:33;15.60;96.20
40255;DHT22;25973;52.368;4.940;2023-04-25T08:49:58;15.00;97.90
40255;DHT22;25973;52.368;4.940;2023-04-25T08:52:24;14.50;99.20
40255;DHT22;25973;52.368;4.940;2023-04-25T08:54:51;14.10;99.90
40255;DHT22;25973;52.368;4.940;2023-04-25T08:57:18;13.70;99.90
40255;DHT22;25973;52.368;4.940;2023-04-25T08:59:43;13.40;99.90
40255;DHT22;25973;52.368;4.940;2023-04-25T09:02:11;13.20;99.90
40255;DHT22;25973;52.368;4.940;2023-04-25T09:04:39;13.10;99.90
40255;DHT22;25973;52.368;4.940;2023-04-25T09:07:06;13.00;99.90
40255;DHT22;25973;52.368;4.940;2023-04-25T09:09:31;13.00;99.90
40255;DHT22;25973;52.368;4.940;2023-04-25T09:11:56;12.90;99.90
40255;DHT22;25973;52.368;4.940;2023-04-25T09:14:22;12.90;99.90
40255;DHT22;25973;52.368;4.940;2023-04-25T09:19:22;12.80;99.90
40255;DHT22;25973;52.368;4.940;2023-04-25T09:21:51;12.80;99.90
40255;DHT22;25973;52.368;4.940;2023-04-25T09:27:20;12.70;99.90
40255;DHT22;25973;52.368;4.940;2023-04-25T09:29:48;12.80;99.90
40255;DHT22;25973;52.368;4.940;2023-04-25T09:32:20;12.80;99.90
40255;DHT22;25973;52.368;4.940;2023-04-25T09:34:47;12.90;99.90
40255;DHT22;25973;52.368;4.940;2023-04-25T09:37:23;13.10;99.60
40255;DHT22;25973;52.368;4.940;2023-04-25T09:39:50;13.10;98.20
40255;DHT22;25973;52.368;4.940;2023-04-25T09:42:16;13.10;99.90
40255;DHT22;25973;52.368;4.940;2023-04-25T09:44:45;13.20;99.50
40255;DHT22;25973;52.368;4.940;2023-04-25T09:47:11;13.20;98.10
40255;DHT22;25973;52.368;4.940;2023-04-25T09:49:41;13.20;98.90
40255;DHT22;25973;52.368;4.940;2023-04-25T09:52:07;13.20;98.40
40255;DHT22;25973;52.368;4.940;2023-04-25T09:54:33;13.40;99.30
40255;DHT22;25973;52.368;4.940;2023-04-25T09:57:00;13.40;98.90
40255;DHT22;25973;52.368;4.940;2023-04-25T09:59:28;13.50;98.90
40255;DHT22;25973;52.368;4.940;2023-04-25T10:01:56;13.60;98.40
40255;DHT22;25973;52.368;4.940;2023-04-25T10:04:24;13.70;97.50
40255;DHT22;25973;52.368;4.940;2023-04-25T10:06:51;13.80;98.40
40255;DHT22;25973;52.368;4.940;2023-04-25T10:09:19;13.80;97.10
40255;DHT22;25973;52.368;4.940;2023-04-25T10:11:46;13.60;99.90
40255;DHT22;25973;52.368;4.940;2023-04-25T10:14:13;13.20;99.90
40255;DHT22;25973;52.368;4.940;2023-04-25T10:16:39;12.90;99.90
40255;DHT22;25973;52.368;4.940;2023-04-25T10:19:05;12.50;99.90
40255;DHT22;25973;52.368;4.940;2023-04-25T10:21:31;12.20;99.90
40255;DHT22;25973;52.368;4.940;2023-04-25T10:23:57;11.80;99.90
40255;DHT22;25973;52.368;4.940;2023-04-25T10:26:23;11.50;99.90
40255;DHT22;25973;52.368;4.940;2023-04-25T10:31:22;11.10;99.90
40255;DHT22;25973;52.368;4.940;2023-04-25T10:33:47;11.10;99.90
40255;DHT22;25973;52.368;4.940;2023-04-25T10:36:14;11.20;99.90
40255;DHT22;25973;52.368;4.940;2023-04-25T10:38:42;11.30;99.90
40255;DHT22;25973;52.368;4.940;2023-04-25T10:41:08;11.50;99.90
40255;DHT22;25973;52.368;4.940;2023-04-25T10:43:35;11.60;99.90
40255;DHT22;25973;52.368;4.940;2023-04-25T10:48:51;11.90;99.90
40255;DHT22;25973;52.368;4.940;2023-04-25T10:51:23;12.00;99.90
40255;DHT22;25973;52.368;4.940;2023-04-25T10:54:06;12.00;99.90
40255;DHT22;25973;52.368;4.940;2023-04-25T10:56:32;12.00;99.90
40255;DHT22;25973;52.368;4.940;2023-04-25T10:59:11;11.90;99.90
40255;DHT22;25973;52.368;4.940;2023-04-25T11:01:38;11.40;99.90
40255;DHT22;25973;52.368;4.940;2023-04-25T11:04:03;11.00;99.90
40255;DHT22;25973;52.368;4.940;2023-04-25T11:06:32;10.70;99.90
40255;DHT22;25973;52.368;4.940;2023-04-25T11:09:02;10.40;99.90
40255;DHT22;25973;52.368;4.940;2023-04-25T11:11:28;10.30;99.90
40255;DHT22;25973;52.368;4.940;2023-04-25T11:13:54;10.20;99.90
40255;DHT22;25973;52.368;4.940;2023-04-25T11:16:19;10.20;99.90
40255;DHT22;25973;52.368;4.940;2023-04-25T11:18:45;10.30;99.90
40255;DHT22;25973;52.368;4.940;2023-04-25T11:21:10;10.30;99.90
40255;DHT22;25973;52.368;4.940;2023-04-25T11:23:36;10.30;99.90
40255;DHT22;25973;52.368;4.940;2023-04-25T11:26:02;10.40;99.90
40255;DHT22;25973;52.368;4.940;2023-04-25T11:28:28;10.40;99.90
40255;DHT22;25973;52.368;4.940;2023-04-25T11:30:53;10.40;99.90
40255;DHT22;25973;52.368;4.940;2023-04-25T11:33:23;10.40;99.90
40255;DHT22;25973;52.368;4.940;2023-04-25T11:35:48;10.40;99.90
40255;DHT22;25973;52.368;4.940;2023-04-25T11:38:14;10.50;99.90
40255;DHT22;25973;52.368;4.940;2023-04-25T11:40:39;10.70;99.90
40255;DHT22;25973;52.368;4.940;2023-04-25T11:43:05;10.90;99.90
40255;DHT22;25973;52.368;4.940;2023-04-25T11:45:30;11.20;99.90
40255;DHT22;25973;52.368;4.940;2023-04-25T11:47:56;11.20;99.90
40255;DHT22;25973;52.368;4.940;2023-04-25T11:50:21;11.20;99.90
40255;DHT22;25973;52.368;4.940;2023-04-25T11:52:47;11.30;99.90
40255;DHT22;25973;52.368;4.940;2023-04-25T11:57:38;11.40;99.90
40255;DHT22;25973;52.368;4.940;2023-04-25T12:00:08;11.50;99.90
40255;DHT22;25973;52.368;4.940;2023-04-25T12:02:37;11.60;99.90
40255;DHT22;25973;52.368;4.940;2023-04-25T12:05:05;11.70;99.90
40255;DHT22;25973;52.368;4.940;2023-04-25T12:07:31;11.60;99.90
40255;DHT22;25973;52.368;4.940;2023-04-25T12:09:56;11.50;99.90
40255;DHT22;25973;52.368;4.940;2023-04-25T12:12:26;11.50;99.90
40255;DHT22;25973;52.368;4.940;2023-04-25T12:14:52;11.40;99.90
40255;DHT22;25973;52.368;4.940;2023-04-25T12:17:17;11.40;99.90
40255;DHT22;25973;52.368;4.940;2023-04-25T12:19:42;11.50;99.90
40255;DHT22;25973;52.368;4.940;2023-04-25T12:22:19;11.50;99.40
40255;DHT22;25973;52.368;4.940;2023-04-25T12:24:46;11.40;99.90
40255;DHT22;25973;52.368;4.940;2023-04-25T12:27:15;11.40;99.90
40255;DHT22;25973;52.368;4.940;2023-04-25T12:29:53;11.40;99.90
40255;DHT22;25973;52.368;4.940;2023-04-25T12:32:19;11.40;99.90
40255;DHT22;25973;52.368;4.940;2023-04-25T12:34:45;11.40;99.90
40255;DHT22;25973;52.368;4.940;2023-04-25T12:37:11;11.50;99.90
40255;DHT22;25973;52.368;4.940;2023-04-25T12:39:37;11.50;99.90
40255;DHT22;25973;52.368;4.940;2023-04-25T12:42:02;11.50;99.90
40255;DHT22;25973;52.368;4.940;2023-04-25T12:44:28;11.50;99.90
40255;DHT22;25973;52.368;4.940;2023-04-25T12:46:54;11.40;99.90
40255;DHT22;25973;52.368;4.940;2023-04-25T12:49:20;11.30;99.90
40255;DHT22;25973;52.368;4.940;2023-04-25T12:51:45;11.30;99.90
40255;DHT22;25973;52.368;4.940;2023-04-25T12:54:12;11.30;99.70
40255;DHT22;25973;52.368;4.940;2023-04-25T12:56:37;11.30;99.90
40255;DHT22;25973;52.368;4.940;2023-04-25T12:59:03;11.30;99.90
40255;DHT22;25973;52.368;4.940;2023-04-25T13:01:29;11.30;99.90
40255;DHT22;25973;52.368;4.940;2023-04-25T13:03:55;11.40;99.90
40255;DHT22;25973;52.368;4.940;2023-04-25T13:06:21;11.50;99.90
40255;DHT22;25973;52.368;4.940;2023-04-25T13:08:46;11.60;99.90
40255;DHT22;25973;52.368;4.940;2023-04-25T13:11:12;11.70;99.90
40255;DHT22;25973;52.368;4.940;2023-04-25T13:13:38;11.70;99.90
40255;DHT22;25973;52.368;4.940;2023-04-25T13:16:04;11.70;99.90
40255;DHT22;25973;52.368;4.940;2023-04-25T13:18:30;11.70;99.90
40255;DHT22;25973;52.368;4.940;2023-04-25T13:20:56;11.70;99.90
40255;DHT22;25973;52.368;4.940;2023-04-25T13:23:22;11.60;98.40
40255;DHT22;25973;52.368;4.940;2023-04-25T13:25:47;11.50;99.80
40255;DHT22;25973;52.368;4.940;2023-04-25T13:28:13;11.40;99.90
40255;DHT22;25973;52.368;4.940;2023-04-25T13:30:39;11.40;99.90
40255;DHT22;25973;52.368;4.940;2023-04-25T13:33:05;11.30;99.90
40255;DHT22;25973;52.368;4.940;2023-04-25T13:35:32;11.20;99.90
40255;DHT22;25973;52.368;4.940;2023-04-25T13:37:58;11.20;99.80
40255;DHT22;25973;52.368;4.940;2023-04-25T13:40:24;11.10;98.50
40255;DHT22;25973;52.368;4.940;2023-04-25T13:42:49;11.00;98.30
40255;DHT22;25973;52.368;4.940;2023-04-25T13:45:16;10.90;98.40
40255;DHT22;25973;52.368;4.940;2023-04-25T13:47:41;10.90;98.60
40255;DHT22;25973;52.368;4.940;2023-04-25T13:50:07;10.90;98.80
40255;DHT22;25973;52.368;4.940;2023-04-25T13:52:33;10.90;98.30
40255;DHT22;25973;52.368;4.940;2023-04-25T13:54:58;10.90;98.70
40255;DHT22;25973;52.368;4.940;2023-04-25T13:57:24;11.00;99.70
40255;DHT22;25973;52.368;4.940;2023-04-25T13:59:49;11.10;99.80
40255;DHT22;25973;52.368;4.940;2023-04-25T14:02:15;11.10;98.40
40255;DHT22;25973;52.368;4.940;2023-04-25T14:04:41;11.20;97.50
40255;DHT22;25973;52.368;4.940;2023-04-25T14:07:06;11.10;96.40
40255;DHT22;25973;52.368;4.940;2023-04-25T14:09:32;11.10;97.20
40255;DHT22;25973;52.368;4.940;2023-04-25T14:11:57;11.20;98.20
40255;DHT22;25973;52.368;4.940;2023-04-25T14:14:23;11.20;98.10
40255;DHT22;25973;52.368;4.940;2023-04-25T14:16:49;11.20;99.40
40255;DHT22;25973;52.368;4.940;2023-04-25T14:19:15;11.20;99.90
40255;DHT22;25973;52.368;4.940;2023-04-25T14:21:41;10.90;99.90
40255;DHT22;25973;52.368;4.940;2023-04-25T14:24:08;10.70;99.90
40255;DHT22;25973;52.368;4.940;2023-04-25T14:26:33;10.50;99.90
40255;DHT22;25973;52.368;4.940;2023-04-25T14:29:00;10.30;99.90
40255;DHT22;25973;52.368;4.940;2023-04-25T14:31:26;10.10;99.90
40255;DHT22;25973;52.368;4.940;2023-04-25T14:33:51;10.10;99.90
40255;DHT22;25973;52.368;4.940;2023-04-25T14:36:17;10.10;99.90
40255;DHT22;25973;52.368;4.940;2023-04-25T14:38:43;10.20;99.90
40255;DHT22;25973;52.368;4.940;2023-04-25T14:41:08;10.40;99.90
40255;DHT22;25973;52.368;4.940;2023-04-25T14:43:34;10.50;99.90
40255;DHT22;25973;52.368;4.940;2023-04-25T14:46:00;10.50;99.90
40255;DHT22;25973;52.368;4.940;2023-04-25T14:48:26;10.50;99.90
40255;DHT22;25973;52.368;4.940;2023-04-25T14:50:52;10.50;99.90
40255;DHT22;25973;52.368;4.940;2023-04-25T14:53:17;10.60;99.90
40255;DHT22;25973;52.368;4.940;2023-04-25T14:55:43;10.70;99.90
40255;DHT22;25973;52.368;4.940;2023-04-25T14:58:08;10.80;99.90
40255;DHT22;25973;52.368;4.940;2023-04-25T15:00:34;10.80;99.90
40255;DHT22;25973;52.368;4.940;2023-04-25T15:02:59;10.80;99.90
40255;DHT22;25973;52.368;4.940;2023-04-25T15:05:25;10.80;99.90
40255;DHT22;25973;52.368;4.940;2023-04-25T15:07:50;10.80;99.90
40255;DHT22;25973;52.368;4.940;2023-04-25T15:10:16;10.80;99.90
40255;DHT22;25973;52.368;4.940;2023-04-25T15:12:42;10.80;99.90
40255;DHT22;25973;52.368;4.940;2023-04-25T15:15:08;10.80;99.90
40255;DHT22;25973;52.368;4.940;2023-04-25T15:17:43;10.90;99.90
40255;DHT22;25973;52.368;4.940;2023-04-25T15:20:09;10.90;99.90
40255;DHT22;25973;52.368;4.940;2023-04-25T15:22:35;10.90;99.90
40255;DHT22;25973;52.368;4.940;2023-04-25T15:25:01;10.90;99.90
40255;DHT22;25973;52.368;4.940;2023-04-25T15:27:27;10.80;99.90
40255;DHT22;25973;52.368;4.940;2023-04-25T15:29:52;10.80;99.90
40255;DHT22;25973;52.368;4.940;2023-04-25T15:32:18;10.90;99.90
40255;DHT22;25973;52.368;4.940;2023-04-25T15:34:44;10.90;99.90
40255;DHT22;25973;52.368;4.940;2023-04-25T15:37:09;10.90;99.90
40255;DHT22;25973;52.368;4.940;2023-04-25T15:39:35;11.00;99.90
40255;DHT22;25973;52.368;4.940;2023-04-25T15:42:00;11.00;99.90
40255;DHT22;25973;52.368;4.940;2023-04-25T15:44:27;11.10;99.90